createdAt,value
2018-08-08T00:02:28.358Z,9.13
2018-08-08T00:04:56.967Z,5.20
2018-08-08T00:07:25.511Z,5.33
2018-08-08T00:09:54.063Z,4.83
2018-08-08T00:12:22.667Z,4.77
2018-08-08T00:14:51.308Z,5.33
2018-08-08T00:17:19.954Z,5.63
2018-08-08T00:19:48.563Z,6.07
2018-08-08T00:22:17.139Z,4.83
2018-08-08T00:24:45.730Z,4.70
2018-08-08T00:27:14.272Z,4.87
2018-08-08T00:29:42.838Z,4.30
2018-08-08T00:32:11.372Z,6.60
2018-08-08T00:34:39.934Z,4.60
2018-08-08T00:37:08.484Z,5.10
2018-08-08T00:39:37.094Z,4.77
2018-08-08T00:42:05.680Z,6.03
2018-08-08T00:44:34.257Z,5.80
2018-08-08T00:47:02.810Z,6.10
2018-08-08T00:49:31.393Z,4.73
2018-08-08T00:51:59.957Z,4.10
2018-08-08T00:54:28.535Z,4.43
2018-08-08T00:56:57.139Z,5.07
2018-08-08T00:59:25.731Z,5.50
2018-08-08T01:01:54.299Z,6.47
2018-08-08T01:04:22.881Z,4.70
2018-08-08T01:06:51.467Z,4.67
2018-08-08T01:09:20.037Z,5.10
2018-08-08T01:11:48.576Z,4.40
2018-08-08T01:14:17.227Z,5.00
2018-08-08T01:16:45.786Z,7.37
2018-08-08T01:19:14.389Z,4.77
2018-08-08T01:21:42.956Z,4.80
2018-08-08T01:24:11.551Z,4.87
2018-08-08T01:26:40.114Z,4.47
2018-08-08T01:29:08.719Z,7.17
2018-08-08T01:31:37.246Z,4.60
2018-08-08T01:34:06.111Z,5.73
2018-08-08T01:36:34.707Z,6.97
2018-08-08T01:39:03.378Z,6.00
2018-08-08T01:41:31.968Z,4.93
2018-08-08T01:44:00.531Z,4.33
2018-08-08T01:46:29.089Z,6.43
2018-08-08T01:48:57.663Z,5.67
2018-08-08T01:51:26.235Z,4.43
2018-08-08T01:53:54.868Z,4.80
2018-08-08T01:56:23.467Z,7.97
2018-08-08T01:58:52.046Z,4.80
2018-08-08T02:01:20.598Z,5.40
2018-08-08T02:03:49.217Z,5.20
2018-08-08T02:06:17.792Z,5.00
2018-08-08T02:08:46.354Z,4.70
2018-08-08T02:11:14.915Z,5.33
2018-08-08T02:13:43.467Z,5.87
2018-08-08T02:16:12.130Z,5.47
2018-08-08T02:18:40.718Z,4.87
2018-08-08T02:21:09.294Z,6.07
2018-08-08T02:23:37.889Z,5.43
2018-08-08T02:26:06.459Z,7.10
2018-08-08T02:28:35.025Z,7.70
2018-08-08T02:31:03.595Z,5.13
2018-08-08T02:33:32.153Z,5.77
2018-08-08T02:36:02.272Z,5.60
2018-08-08T02:38:30.891Z,5.83
2018-08-08T02:40:59.438Z,6.17
2018-08-08T02:43:28.015Z,5.80
2018-08-08T02:45:56.543Z,6.20
2018-08-08T02:48:25.140Z,7.60
2018-08-08T02:50:53.719Z,5.70
2018-08-08T02:53:22.287Z,6.77
2018-08-08T02:55:50.843Z,6.63
2018-08-08T02:58:19.413Z,7.73
2018-08-08T03:00:48.623Z,6.33
2018-08-08T03:03:17.166Z,8.03
2018-08-08T03:05:45.735Z,6.50
2018-08-08T03:08:14.277Z,6.47
2018-08-08T03:10:42.812Z,6.93
2018-08-08T03:13:11.416Z,7.27
2018-08-08T03:15:40.014Z,6.80
2018-08-08T03:18:08.582Z,6.90
2018-08-08T03:20:37.182Z,6.70
2018-08-08T03:23:05.810Z,6.40
2018-08-08T03:25:34.385Z,10.13
2018-08-08T03:28:02.951Z,6.83
2018-08-08T03:30:38.055Z,7.87
2018-08-08T03:33:06.888Z,7.23
2018-08-08T03:35:35.415Z,9.17
2018-08-08T03:38:03.981Z,6.73
2018-08-08T03:40:32.546Z,6.83
2018-08-08T03:43:01.135Z,6.40
2018-08-08T03:45:29.707Z,8.50
2018-08-08T03:47:58.280Z,6.77
2018-08-08T03:50:26.884Z,7.27
2018-08-08T03:52:55.487Z,7.90
2018-08-08T03:55:24.066Z,7.00
2018-08-08T03:57:52.696Z,8.03
2018-08-08T04:00:22.046Z,7.40
2018-08-08T04:02:51.040Z,7.17
2018-08-08T04:05:19.614Z,7.37
2018-08-08T04:07:48.284Z,9.10
2018-08-08T04:10:17.656Z,7.93
2018-08-08T04:12:46.265Z,7.97
2018-08-08T04:15:16.036Z,7.23
2018-08-08T04:17:44.618Z,7.20
2018-08-08T04:20:13.189Z,9.37
2018-08-08T04:22:41.825Z,7.53
2018-08-08T04:25:11.893Z,7.13
2018-08-08T04:27:40.657Z,6.43
2018-08-08T04:30:14.015Z,8.50
2018-08-08T04:32:42.606Z,9.40
2018-08-08T04:35:11.263Z,7.03
2018-08-08T04:37:40.041Z,8.87
2018-08-08T04:40:11.896Z,6.50
2018-08-08T04:42:41.045Z,7.83
2018-08-08T04:45:09.601Z,6.90
2018-08-08T04:47:38.197Z,9.33
2018-08-08T04:50:07.267Z,9.33
2018-08-08T04:52:35.852Z,8.17
2018-08-08T04:55:05.475Z,7.00
2018-08-08T04:57:34.040Z,6.87
2018-08-08T05:00:02.615Z,7.07
2018-08-08T05:02:31.213Z,7.40
2018-08-08T05:04:59.795Z,6.83
2018-08-08T05:07:28.364Z,6.80
2018-08-08T05:09:56.927Z,6.97
2018-08-08T05:12:25.500Z,7.57
2018-08-08T05:14:54.079Z,7.00
2018-08-08T05:17:22.698Z,8.90
2018-08-08T05:19:51.258Z,7.97
2018-08-08T05:22:19.980Z,10.43
2018-08-08T05:24:48.690Z,7.17
2018-08-08T05:27:17.814Z,8.77
2018-08-08T05:29:46.603Z,7.90
2018-08-08T05:32:15.216Z,9.73
2018-08-08T05:34:43.767Z,7.43
2018-08-08T05:37:12.374Z,7.27
2018-08-08T05:39:40.936Z,8.80
2018-08-08T05:42:09.657Z,6.73
2018-08-08T05:44:38.287Z,6.83
2018-08-08T05:47:06.859Z,7.70
2018-08-08T05:49:35.431Z,7.57
2018-08-08T05:52:03.984Z,8.30
2018-08-08T05:54:32.511Z,8.83
2018-08-08T05:57:01.071Z,6.53
2018-08-08T05:59:29.640Z,8.23
2018-08-08T06:01:58.197Z,6.37
2018-08-08T06:04:26.743Z,10.30
2018-08-08T06:06:55.342Z,11.73
2018-08-08T06:09:23.964Z,6.53
2018-08-08T06:11:52.558Z,13.17
2018-08-08T06:14:21.158Z,9.60
2018-08-08T06:16:49.711Z,9.80
2018-08-08T06:19:18.334Z,5.23
2018-08-08T06:21:47.493Z,6.67
2018-08-08T06:24:16.103Z,5.40
2018-08-08T06:26:47.062Z,5.20
2018-08-08T06:29:16.869Z,5.67
2018-08-08T06:31:45.430Z,12.00
2018-08-08T06:34:13.990Z,17.90
2018-08-08T06:36:42.546Z,10.60
2018-08-08T06:39:13.466Z,13.27
2018-08-08T06:41:42.484Z,14.20
2018-08-08T06:44:11.126Z,10.13
2018-08-08T06:46:39.679Z,11.40
2018-08-08T06:49:08.243Z,6.03
2018-08-08T06:51:36.924Z,11.27
2018-08-08T06:54:05.783Z,6.60
2018-08-08T06:56:34.354Z,11.97
2018-08-08T06:59:02.935Z,6.23
2018-08-08T07:01:31.479Z,10.30
2018-08-08T07:04:00.058Z,7.30
2018-08-08T07:06:28.715Z,6.73
2018-08-08T07:08:57.291Z,6.27
2018-08-08T07:11:25.851Z,7.13
2018-08-08T07:13:54.426Z,5.70
2018-08-08T07:16:23.041Z,6.80
2018-08-08T07:18:51.628Z,5.67
2018-08-08T07:21:20.239Z,7.37
2018-08-08T07:23:48.812Z,5.63
2018-08-08T07:26:17.374Z,5.50
2018-08-08T07:28:45.919Z,10.17
2018-08-08T07:31:14.450Z,8.77
2018-08-08T07:33:43.018Z,11.73
2018-08-08T07:36:11.655Z,15.87
2018-08-08T07:38:40.246Z,8.80
2018-08-08T07:41:08.910Z,10.87
2018-08-08T07:43:37.620Z,12.23
2018-08-08T07:46:06.248Z,6.53
2018-08-08T07:48:34.791Z,8.60
2018-08-08T07:51:03.550Z,8.37
2018-08-08T07:53:32.314Z,7.67
2018-08-08T07:56:00.847Z,14.20
2018-08-08T07:58:29.415Z,6.60
2018-08-08T08:00:58.099Z,8.93
2018-08-08T08:03:26.778Z,7.87
2018-08-08T08:05:55.339Z,10.50
2018-08-08T08:08:23.922Z,10.20
2018-08-08T08:10:52.537Z,10.30
2018-08-08T08:13:21.055Z,10.67
2018-08-08T08:15:49.638Z,10.87
2018-08-08T08:18:18.222Z,10.23
2018-08-08T08:20:46.789Z,11.73
2018-08-08T08:23:15.375Z,9.20
2018-08-08T08:25:43.905Z,12.20
2018-08-08T08:28:12.455Z,11.93
2018-08-08T08:30:41.025Z,10.23
2018-08-08T08:33:09.595Z,10.17
2018-08-08T08:35:38.108Z,8.73
2018-08-08T08:38:06.706Z,7.17
2018-08-08T08:40:35.301Z,6.83
2018-08-08T08:43:03.916Z,6.87
2018-08-08T08:45:32.459Z,8.83
2018-08-08T08:48:01.035Z,11.73
2018-08-08T08:50:29.656Z,8.43
2018-08-08T08:52:58.215Z,6.43
2018-08-08T08:55:26.784Z,21.03
2018-08-08T08:57:55.398Z,25.53
2018-08-08T09:00:23.973Z,22.53
2018-08-08T09:02:52.566Z,29.17
2018-08-08T09:05:21.110Z,37.53
2018-08-08T09:07:49.662Z,36.47
2018-08-08T09:10:18.203Z,24.43
2018-08-08T09:12:46.752Z,30.37
2018-08-08T09:15:15.303Z,17.80
2018-08-08T09:17:43.869Z,21.30
2018-08-08T09:20:15.052Z,35.17
2018-08-08T09:22:44.206Z,29.07
2018-08-08T09:25:12.984Z,20.87
2018-08-08T09:27:41.891Z,22.70
2018-08-08T09:30:12.434Z,20.47
2018-08-08T09:32:43.828Z,24.87
2018-08-08T09:35:13.264Z,22.47
2018-08-08T09:37:42.576Z,28.27
2018-08-08T09:40:11.625Z,24.17
2018-08-08T09:42:40.156Z,20.53
2018-08-08T09:45:09.534Z,26.63
2018-08-08T09:47:38.687Z,15.20
2018-08-08T09:50:07.961Z,19.80
2018-08-08T09:52:36.529Z,28.37
2018-08-08T09:55:05.269Z,19.63
2018-08-08T09:57:33.930Z,16.07
2018-08-08T10:00:02.495Z,20.60
2018-08-08T10:02:38.149Z,24.00
2018-08-08T10:05:07.423Z,20.13
2018-08-08T10:07:36.008Z,23.13
2018-08-08T10:10:04.787Z,18.43
2018-08-08T10:12:33.313Z,20.13
2018-08-08T10:15:01.884Z,16.07
2018-08-08T10:17:30.454Z,16.07
2018-08-08T10:19:58.994Z,14.87
2018-08-08T10:22:27.543Z,13.03
2018-08-08T10:24:56.157Z,14.90
2018-08-08T10:27:24.710Z,14.53
2018-08-08T10:29:53.279Z,13.47
2018-08-08T10:32:21.813Z,12.23
2018-08-08T10:34:50.396Z,11.80
2018-08-08T10:37:18.977Z,13.60
2018-08-08T10:39:47.518Z,22.90
2018-08-08T10:42:16.112Z,16.30
2018-08-08T10:44:44.647Z,18.47
2018-08-08T10:47:13.345Z,12.10
2018-08-08T10:49:41.915Z,19.97
2018-08-08T10:52:10.506Z,16.90
2018-08-08T10:54:39.127Z,13.23
2018-08-08T10:57:07.801Z,8.83
2018-08-08T10:59:36.382Z,12.53
2018-08-08T11:02:04.946Z,16.83
2018-08-08T11:04:33.517Z,11.63
2018-08-08T11:07:02.823Z,11.40
2018-08-08T11:09:31.441Z,11.67
2018-08-08T11:12:00.060Z,10.60
2018-08-08T11:14:28.815Z,10.73
2018-08-08T11:16:57.419Z,9.23
2018-08-08T11:19:25.991Z,12.47
2018-08-08T11:21:54.592Z,13.90
2018-08-08T11:24:23.209Z,10.13
2018-08-08T11:26:51.770Z,12.43
2018-08-08T11:29:20.344Z,10.53
2018-08-08T11:31:48.942Z,8.90
2018-08-08T11:34:17.484Z,11.23
2018-08-08T11:36:46.096Z,7.13
2018-08-08T11:39:14.675Z,10.17
2018-08-08T11:41:43.398Z,13.17
2018-08-08T11:44:12.467Z,12.10
2018-08-08T11:47:11.717Z,8.87
2018-08-08T11:49:40.301Z,9.47
2018-08-08T11:52:08.959Z,12.67
2018-08-08T11:54:37.464Z,9.30
2018-08-08T11:57:06.231Z,11.00
2018-08-08T11:59:34.823Z,8.07
2018-08-08T12:02:03.350Z,9.83
2018-08-08T12:04:31.958Z,7.77
2018-08-08T12:07:14.323Z,8.60
2018-08-08T12:09:57.937Z,8.43
2018-08-08T12:17:20.705Z,7.43
2018-08-08T12:19:49.247Z,9.13
2018-08-08T12:22:17.804Z,9.70
2018-08-08T12:24:46.342Z,12.17
2018-08-08T12:27:14.967Z,9.23
2018-08-08T12:29:43.532Z,10.07
2018-08-08T12:32:12.077Z,10.83
2018-08-08T12:34:40.644Z,8.83
2018-08-08T12:37:09.179Z,7.27
2018-08-08T12:39:37.754Z,6.90
2018-08-08T12:42:06.333Z,6.00
2018-08-08T12:44:34.936Z,9.20
2018-08-08T12:47:03.601Z,8.07
2018-08-08T12:49:32.169Z,7.17
2018-08-08T12:52:00.727Z,7.37
2018-08-08T12:54:29.314Z,8.07
2018-08-08T12:56:57.895Z,8.07
2018-08-08T12:59:26.440Z,6.80
2018-08-08T13:01:55.062Z,6.57
2018-08-08T13:04:24.162Z,7.30
2018-08-08T13:06:52.844Z,6.23
2018-08-08T13:09:21.409Z,5.73
2018-08-08T13:11:49.939Z,8.60
2018-08-08T13:14:18.704Z,6.93
2018-08-08T13:16:47.080Z,7.30
2018-08-08T13:19:15.649Z,7.93
2018-08-08T13:21:44.215Z,6.87
2018-08-08T13:24:12.824Z,7.37
2018-08-08T13:26:41.366Z,6.40
2018-08-08T13:29:09.955Z,7.90
2018-08-08T13:31:38.542Z,5.63
2018-08-08T13:34:07.102Z,7.77
2018-08-08T13:36:35.683Z,6.90
2018-08-08T13:39:06.380Z,7.13
2018-08-08T13:41:46.365Z,6.33
2018-08-08T13:44:30.534Z,5.63
2018-08-08T13:50:03.968Z,5.77
2018-08-08T13:52:32.680Z,5.67
2018-08-08T13:55:01.278Z,7.40
2018-08-08T13:57:29.880Z,7.57
2018-08-08T13:59:58.436Z,7.83
2018-08-08T14:02:29.139Z,5.83
2018-08-08T14:04:59.506Z,5.60
2018-08-08T14:07:28.917Z,5.57
2018-08-08T14:10:00.517Z,6.13
2018-08-08T14:12:29.333Z,5.90
2018-08-08T14:14:58.259Z,5.60
2018-08-08T14:17:28.327Z,6.13
2018-08-08T14:19:56.906Z,6.73
2018-08-08T14:22:25.623Z,8.90
2018-08-08T14:24:54.287Z,6.20
2018-08-08T14:27:22.839Z,6.07
2018-08-08T14:29:51.371Z,6.47
2018-08-08T14:32:19.950Z,5.93
2018-08-08T14:34:50.771Z,7.33
2018-08-08T14:37:20.701Z,4.90
2018-08-08T14:39:49.414Z,5.03
2018-08-08T14:42:17.999Z,5.40
2018-08-08T14:44:46.593Z,7.00
2018-08-08T14:47:16.832Z,5.30
2018-08-08T14:49:48.069Z,5.10
2018-08-08T14:52:17.651Z,6.00
2018-08-08T14:55:01.141Z,5.57
2018-08-08T14:57:29.746Z,6.53
2018-08-08T14:59:58.273Z,5.03
2018-08-08T15:02:26.823Z,5.17
2018-08-08T15:04:55.418Z,5.17
2018-08-08T15:07:24.063Z,4.93
2018-08-08T15:09:52.719Z,4.83
2018-08-08T15:12:35.938Z,4.83
2018-08-08T15:15:06.095Z,5.93
2018-08-08T15:17:34.646Z,6.37
2018-08-08T15:20:03.278Z,5.27
2018-08-08T15:22:31.804Z,4.63
2018-08-08T15:25:00.419Z,5.33
2018-08-08T15:27:28.985Z,4.83
2018-08-08T15:29:57.560Z,5.00
2018-08-08T15:32:26.088Z,4.77
2018-08-08T15:34:54.672Z,4.30
2018-08-08T15:37:23.820Z,4.57
2018-08-08T15:39:52.125Z,7.97
2018-08-08T15:42:20.681Z,5.60
2018-08-08T15:44:49.249Z,4.57
2018-08-08T15:47:17.933Z,5.47
2018-08-08T15:49:46.531Z,4.90
2018-08-08T15:52:15.442Z,5.67
2018-08-08T15:54:44.001Z,4.70
2018-08-08T15:57:12.597Z,5.03
2018-08-08T15:59:41.576Z,6.40
2018-08-08T16:02:10.156Z,4.63
2018-08-08T16:04:38.721Z,5.10
2018-08-08T16:07:07.275Z,4.80
2018-08-08T16:09:36.071Z,5.13
2018-08-08T16:12:04.671Z,4.90
2018-08-08T16:14:33.205Z,4.30
2018-08-08T16:17:01.888Z,4.23
2018-08-08T16:19:30.502Z,6.00
2018-08-08T16:21:59.078Z,4.97
2018-08-08T16:24:27.757Z,6.13
2018-08-08T16:26:56.308Z,7.90
2018-08-08T16:29:24.895Z,6.10
2018-08-08T16:31:53.441Z,10.20
2018-08-08T16:34:22.016Z,8.13
2018-08-08T16:36:50.628Z,6.37
2018-08-08T16:39:19.208Z,12.07
2018-08-08T16:41:47.770Z,9.50
2018-08-08T16:44:16.353Z,16.33
2018-08-08T16:46:44.903Z,17.67
2018-08-08T16:49:13.459Z,12.20
2018-08-08T16:51:42.058Z,16.13
2018-08-08T16:54:10.660Z,11.97
2018-08-08T16:56:39.196Z,8.83
2018-08-08T16:59:07.740Z,14.40
2018-08-08T17:01:36.315Z,10.47
2018-08-08T17:04:04.913Z,10.47
2018-08-08T17:06:33.522Z,11.13
2018-08-08T17:09:02.429Z,14.50
2018-08-08T17:11:30.992Z,8.20
2018-08-08T17:13:59.583Z,9.93
2018-08-08T17:16:28.100Z,9.63
2018-08-08T17:18:56.722Z,7.33
2018-08-08T17:21:25.311Z,11.90
2018-08-08T17:23:53.908Z,7.07
2018-08-08T17:26:22.472Z,9.67
2018-08-08T17:28:51.039Z,6.33
2018-08-08T17:31:19.631Z,8.60
2018-08-08T17:33:48.187Z,7.10
2018-08-08T17:36:16.736Z,8.40
2018-08-08T17:38:45.362Z,10.70
2018-08-08T17:41:13.940Z,6.10
2018-08-08T17:43:42.889Z,5.93
2018-08-08T17:46:11.088Z,6.83
2018-08-08T17:48:39.657Z,7.27
2018-08-08T17:51:08.423Z,6.27
2018-08-08T17:53:38.438Z,3.10
2018-08-08T17:56:07.185Z,4.03
2018-08-08T17:58:35.819Z,4.13
2018-08-08T18:01:04.339Z,4.00
2018-08-08T18:03:33.472Z,3.87
2018-08-08T18:06:11.647Z,5.47
2018-08-08T18:08:40.188Z,4.27
2018-08-08T18:11:08.786Z,4.90
2018-08-08T18:13:37.344Z,4.30
2018-08-08T18:16:05.898Z,3.53
2018-08-08T18:18:34.579Z,4.37
2018-08-08T18:21:03.148Z,4.77
2018-08-08T18:23:31.703Z,4.17
2018-08-08T18:26:00.287Z,3.43
2018-08-08T18:28:28.531Z,4.13
2018-08-08T18:30:57.100Z,3.43
2018-08-08T18:33:25.691Z,5.17
2018-08-08T18:35:54.248Z,5.30
2018-08-08T18:38:22.924Z,4.50
2018-08-08T18:40:51.477Z,3.57
2018-08-08T18:43:20.043Z,3.53
2018-08-08T18:45:48.607Z,3.50
2018-08-08T18:48:17.164Z,3.40
2018-08-08T18:50:45.703Z,4.17
2018-08-08T18:53:14.258Z,5.23
2018-08-08T18:55:42.827Z,3.50
2018-08-08T18:58:11.381Z,5.13
2018-08-08T19:00:39.933Z,4.10
2018-08-08T19:03:08.463Z,4.20
2018-08-08T19:05:37.058Z,4.90
2018-08-08T19:08:05.922Z,3.43
2018-08-08T19:10:34.475Z,4.40
2018-08-08T19:13:03.139Z,3.37
2018-08-08T19:15:31.692Z,3.70
2018-08-08T19:18:00.611Z,3.40
2018-08-08T19:20:29.200Z,3.17
2018-08-08T19:23:02.117Z,3.30
2018-08-08T19:25:30.732Z,4.00
2018-08-08T19:27:59.316Z,4.00
2018-08-08T19:30:27.950Z,3.40
2018-08-08T19:32:56.530Z,4.80
2018-08-08T19:35:25.168Z,3.37
2018-08-08T19:37:53.735Z,3.50
2018-08-08T19:40:22.317Z,5.87
2018-08-08T19:42:51.036Z,4.63
2018-08-08T19:45:19.626Z,3.77
2018-08-08T19:47:48.195Z,5.07
2018-08-08T19:50:16.749Z,3.83
2018-08-08T19:52:45.334Z,4.17
2018-08-08T19:55:13.995Z,3.80
2018-08-08T19:57:42.556Z,3.43
2018-08-08T20:00:11.233Z,4.57
2018-08-08T20:02:39.812Z,4.00
2018-08-08T20:05:08.395Z,3.80
2018-08-08T20:07:36.943Z,4.03
2018-08-08T20:10:05.533Z,5.97
2018-08-08T20:12:34.064Z,5.37
2018-08-08T20:15:02.642Z,3.93
2018-08-08T20:17:31.218Z,4.77
2018-08-08T20:19:59.838Z,4.83
2018-08-08T20:22:28.389Z,4.13
2018-08-08T20:24:57.025Z,4.37
2018-08-08T20:27:25.606Z,3.70
2018-08-08T20:29:54.171Z,3.40
2018-08-08T20:34:57.635Z,4.83
2018-08-08T20:37:26.230Z,4.90
2018-08-08T20:39:54.796Z,4.70
2018-08-08T20:42:23.369Z,4.13
2018-08-08T20:44:52.026Z,5.53
2018-08-08T20:47:20.508Z,6.90
2018-08-08T20:49:49.148Z,4.75
2018-08-08T20:52:17.693Z,4.53
2018-08-08T20:54:46.230Z,6.08
2018-08-08T20:57:14.826Z,5.30
2018-08-08T20:59:43.428Z,4.33
2018-08-08T21:02:11.980Z,5.85
2018-08-08T21:04:40.520Z,5.75
2018-08-08T21:07:09.081Z,6.67
2018-08-08T21:09:38.317Z,5.27
2018-08-08T21:12:06.920Z,5.87
2018-08-08T21:14:35.512Z,7.30
2018-08-08T21:17:04.092Z,4.80
2018-08-08T21:19:32.644Z,5.47
2018-08-08T21:22:01.213Z,5.90
2018-08-08T21:24:29.771Z,7.50
2018-08-08T21:26:58.334Z,5.10
2018-08-08T21:29:26.900Z,4.67
2018-08-08T21:31:55.503Z,7.23
2018-08-08T21:34:24.083Z,3.63
2018-08-08T21:36:52.671Z,7.17
2018-08-08T21:39:21.212Z,3.93
2018-08-08T21:41:49.786Z,3.97
2018-08-08T21:44:18.391Z,6.87
2018-08-08T21:46:47.066Z,6.23
2018-08-08T21:49:15.616Z,9.80
2018-08-08T21:51:44.241Z,8.10
2018-08-08T21:54:24.031Z,9.23
2018-08-08T21:57:03.633Z,9.07
2018-08-08T21:59:43.327Z,8.40
2018-08-08T22:02:23.015Z,9.27
2018-08-08T22:05:02.650Z,9.87
2018-08-08T22:07:42.436Z,10.97
2018-08-08T22:10:22.257Z,11.00
2018-08-08T22:13:02.000Z,9.80
2018-08-08T22:15:41.776Z,8.83
2018-08-08T22:18:22.559Z,9.57
2018-08-08T22:20:51.117Z,8.60
2018-08-08T22:23:19.666Z,7.93
2018-08-08T22:25:48.240Z,7.90
2018-08-08T22:28:17.992Z,12.27
2018-08-08T22:30:47.409Z,11.97
2018-08-08T22:33:15.992Z,10.33
2018-08-08T22:35:44.546Z,12.60
2018-08-08T22:38:43.972Z,9.23
2018-08-08T22:41:12.525Z,8.10
2018-08-08T22:43:41.071Z,14.43
2018-08-08T22:46:09.621Z,13.53
2018-08-08T22:48:38.167Z,7.37
2018-08-08T22:51:06.770Z,9.83
2018-08-08T22:53:35.347Z,8.83
2018-08-08T22:56:03.912Z,8.50
2018-08-08T22:58:32.578Z,9.77
2018-08-08T23:01:01.150Z,10.07
2018-08-08T23:03:29.763Z,8.63
2018-08-08T23:05:58.338Z,10.43
2018-08-08T23:08:29.257Z,12.67
2018-08-08T23:10:57.851Z,14.47
2018-08-08T23:13:26.540Z,8.57
2018-08-08T23:15:55.075Z,8.60
2018-08-08T23:18:23.650Z,10.80
2018-08-08T23:23:27.119Z,9.00
2018-08-08T23:25:55.642Z,9.53
2018-08-08T23:28:25.218Z,8.57
2018-08-08T23:30:53.764Z,8.73
2018-08-08T23:33:22.295Z,12.20
2018-08-08T23:35:50.849Z,9.73
2018-08-08T23:38:19.385Z,8.47
2018-08-08T23:40:47.951Z,9.80
2018-08-08T23:43:16.502Z,11.03
2018-08-08T23:45:45.074Z,10.90
2018-08-08T23:48:13.642Z,10.23
2018-08-08T23:50:42.190Z,10.97
2018-08-08T23:53:10.757Z,9.63
2018-08-08T23:55:39.354Z,9.60
2018-08-08T23:58:08.001Z,9.73
